Terminal Aerodrome Forecast
Issued by NWS Shreveport, LA

Current Version | Previous Version | Text Only | Print | Product List | Glossary On
Versions: 1 2 3 4 5 6 7 8 9 10 11 12 13 14
594
FTUS44 KSHV 221138
TAFELD
TAF
KELD 221138Z 2212/2312 32006KT 6SM -RA BR SCT009 SCT040 OVC080
      TEMPO 2212/2214 5SM -RA BR BKN015
     FM221400 34006KT P6SM -RA SCT009 OVC090
      TEMPO 2214/2218 BKN020
     FM221800 33008KT P6SM BKN040
     FM222000 33007KT P6SM BKN020
     FM230600 31003KT P6SM SCT025=

USA.gov is the U.S. government's official web portal to all federal, state and local government web resources and services.